createdAt,value
2024-02-24T00:07:22.508Z,1.40
2024-02-24T00:22:24.254Z,1.57
2024-02-24T00:37:25.934Z,1.30
2024-02-24T00:52:27.728Z,1.40
2024-02-24T01:07:29.554Z,1.60
2024-02-24T01:22:31.374Z,1.50
2024-02-24T01:37:33.139Z,1.80
2024-02-24T01:52:34.883Z,1.50
2024-02-24T02:07:37.123Z,1.77
2024-02-24T02:22:38.835Z,1.47
2024-02-24T02:37:40.579Z,4.50
2024-02-24T02:52:42.470Z,3.50
2024-02-24T03:07:44.215Z,2.30
2024-02-24T03:22:46.007Z,5.10
2024-02-24T03:37:50.155Z,5.20
2024-02-24T03:52:51.961Z,4.90
2024-02-24T04:07:53.707Z,4.97
2024-02-24T04:22:55.480Z,4.80
2024-02-24T04:37:57.238Z,4.30
2024-02-24T04:52:59.091Z,4.33
2024-02-24T05:08:00.988Z,4.53
2024-02-24T05:23:03.065Z,3.60
2024-02-24T05:38:04.825Z,4.40
2024-02-24T05:53:08.777Z,4.77
2024-02-24T06:08:12.060Z,4.67
2024-02-24T06:23:13.853Z,5.87
2024-02-24T06:38:15.613Z,5.83
2024-02-24T06:53:17.368Z,6.33
2024-02-24T07:23:53.329Z,5.60
2024-02-24T07:54:12.223Z,7.20
2024-02-24T08:09:13.930Z,9.23
2024-02-24T08:24:17.669Z,6.47
2024-02-24T08:39:19.728Z,2.60
2024-02-24T08:54:22.138Z,2.03
2024-02-24T09:09:24.307Z,3.40
2024-02-24T09:24:26.059Z,1.60
2024-02-24T09:39:27.753Z,2.10
2024-02-24T09:54:30.334Z,2.27
2024-02-24T10:09:32.708Z,1.73
2024-02-24T10:24:35.408Z,1.90
2024-02-24T10:39:40.366Z,1.90
2024-02-24T10:54:43.561Z,1.90
2024-02-24T11:09:52.528Z,2.10
2024-02-24T11:25:05.853Z,2.00
2024-02-24T11:40:08.599Z,2.30
2024-02-24T11:55:10.842Z,2.47
2024-02-24T12:10:12.799Z,2.40
2024-02-24T12:25:15.745Z,2.27
2024-02-24T12:40:37.455Z,2.37
2024-02-24T12:55:39.210Z,2.73
2024-02-24T13:10:41.041Z,2.67
2024-02-24T13:25:44.530Z,2.40
2024-02-24T13:40:46.491Z,3.20
2024-02-24T13:55:48.187Z,2.80
2024-02-24T14:10:50.165Z,3.40
2024-02-24T14:25:51.890Z,2.70
2024-02-24T14:40:55.781Z,2.40
2024-02-24T14:55:57.513Z,2.50
2024-02-24T15:10:59.417Z,3.30
2024-02-24T15:26:01.177Z,3.87
2024-02-24T15:41:03.022Z,3.00
2024-02-24T15:56:06.089Z,3.90
2024-02-24T16:11:07.832Z,2.93
2024-02-24T16:26:09.931Z,3.93
2024-02-24T16:41:11.654Z,4.93
2024-02-24T16:56:13.517Z,4.40
2024-02-24T17:11:20.294Z,3.80
2024-02-24T17:26:22.246Z,2.77
2024-02-24T17:41:24.030Z,4.23
2024-02-24T17:56:26.012Z,4.60
2024-02-24T18:11:27.745Z,3.83
2024-02-24T18:26:29.512Z,2.13
2024-02-24T18:41:31.357Z,2.73
2024-02-24T18:56:34.534Z,2.37
2024-02-24T19:11:36.426Z,3.30
2024-02-24T19:26:42.385Z,2.77
2024-02-24T19:41:45.543Z,4.03
2024-02-24T19:56:47.576Z,3.00
2024-02-24T20:11:49.514Z,3.50
2024-02-24T20:26:51.429Z,2.60
2024-02-24T20:41:53.989Z,2.20
2024-02-24T20:56:56.154Z,2.30
2024-02-24T21:11:57.922Z,2.50
2024-02-24T21:27:00.293Z,2.33
2024-02-24T21:42:02.380Z,2.40
2024-02-24T21:57:04.557Z,2.40
2024-02-24T22:12:06.737Z,2.73
2024-02-24T22:27:09.202Z,3.90
2024-02-24T22:42:11.152Z,3.50
2024-02-24T22:57:13.015Z,4.00
2024-02-24T23:12:14.894Z,4.13
2024-02-24T23:27:16.814Z,4.03
2024-02-24T23:42:19.522Z,3.80
2024-02-24T23:57:21.327Z,4.00
